sensor_id;sensor_type;location;lat;lon;timestamp;P1;durP1;ratioP1;P2;durP2;ratioP2
60492;SDS011;46341;51.290;-2.474;2023-01-01T00:01:20;14.25;;;3.30;;
60492;SDS011;46341;51.290;-2.474;2023-01-01T00:03:50;12.10;;;3.05;;
60492;SDS011;46341;51.290;-2.474;2023-01-01T00:06:16;14.57;;;4.47;;
60492;SDS011;46341;51.290;-2.474;2023-01-01T00:08:42;16.98;;;5.18;;
60492;SDS011;46341;51.290;-2.474;2023-01-01T00:11:09;20.83;;;4.00;;
60492;SDS011;46341;51.290;-2.474;2023-01-01T00:13:36;16.15;;;3.65;;
60492;SDS011;46341;51.290;-2.474;2023-01-01T00:16:07;15.23;;;4.63;;
60492;SDS011;46341;51.290;-2.474;2023-01-01T00:18:34;19.05;;;4.30;;
60492;SDS011;46341;51.290;-2.474;2023-01-01T00:21:04;14.77;;;3.13;;
60492;SDS011;46341;51.290;-2.474;2023-01-01T00:23:31;15.13;;;4.00;;
60492;SDS011;46341;51.290;-2.474;2023-01-01T00:25:57;19.85;;;5.00;;
60492;SDS011;46341;51.290;-2.474;2023-01-01T00:28:23;20.48;;;4.25;;
60492;SDS011;46341;51.290;-2.474;2023-01-01T00:30:50;20.08;;;3.80;;
60492;SDS011;46341;51.290;-2.474;2023-01-01T00:33:16;13.82;;;3.00;;
60492;SDS011;46341;51.290;-2.474;2023-01-01T00:35:43;14.95;;;2.80;;
60492;SDS011;46341;51.290;-2.474;2023-01-01T00:38:09;16.33;;;2.85;;
60492;SDS011;46341;51.290;-2.474;2023-01-01T00:40:35;14.63;;;2.30;;
60492;SDS011;46341;51.290;-2.474;2023-01-01T00:43:02;19.83;;;3.72;;
60492;SDS011;46341;51.290;-2.474;2023-01-01T00:45:28;14.23;;;2.83;;
60492;SDS011;46341;51.290;-2.474;2023-01-01T00:47:54;19.23;;;3.28;;
60492;SDS011;46341;51.290;-2.474;2023-01-01T00:50:21;13.90;;;3.38;;
60492;SDS011;46341;51.290;-2.474;2023-01-01T00:52:48;22.00;;;4.40;;
60492;SDS011;46341;51.290;-2.474;2023-01-01T00:55:14;22.10;;;4.15;;
60492;SDS011;46341;51.290;-2.474;2023-01-01T00:57:41;18.17;;;3.75;;
60492;SDS011;46341;51.290;-2.474;2023-01-01T01:00:07;18.52;;;4.40;;
60492;SDS011;46341;51.290;-2.474;2023-01-01T01:02:34;22.23;;;3.35;;
60492;SDS011;46341;51.290;-2.474;2023-01-01T01:05:01;17.90;;;2.53;;
60492;SDS011;46341;51.290;-2.474;2023-01-01T01:07:32;17.35;;;2.83;;
60492;SDS011;46341;51.290;-2.474;2023-01-01T01:09:58;20.13;;;2.40;;
60492;SDS011;46341;51.290;-2.474;2023-01-01T01:12:24;18.58;;;2.65;;
60492;SDS011;46341;51.290;-2.474;2023-01-01T01:14:51;17.27;;;2.58;;
60492;SDS011;46341;51.290;-2.474;2023-01-01T01:17:17;18.98;;;2.53;;
60492;SDS011;46341;51.290;-2.474;2023-01-01T01:19:43;16.50;;;2.38;;
60492;SDS011;46341;51.290;-2.474;2023-01-01T01:22:10;18.48;;;2.60;;
60492;SDS011;46341;51.290;-2.474;2023-01-01T01:24:36;25.27;;;3.53;;
60492;SDS011;46341;51.290;-2.474;2023-01-01T01:27:02;18.92;;;3.08;;
60492;SDS011;46341;51.290;-2.474;2023-01-01T01:29:29;19.48;;;3.20;;
60492;SDS011;46341;51.290;-2.474;2023-01-01T01:31:55;18.05;;;2.58;;
60492;SDS011;46341;51.290;-2.474;2023-01-01T01:34:21;19.67;;;3.22;;
60492;SDS011;46341;51.290;-2.474;2023-01-01T01:36:53;24.85;;;3.92;;
60492;SDS011;46341;51.290;-2.474;2023-01-01T01:39:20;16.58;;;2.85;;
60492;SDS011;46341;51.290;-2.474;2023-01-01T01:41:46;18.60;;;2.67;;
60492;SDS011;46341;51.290;-2.474;2023-01-01T01:46:58;16.85;;;2.85;;
60492;SDS011;46341;51.290;-2.474;2023-01-01T01:49:28;19.43;;;3.33;;
60492;SDS011;46341;51.290;-2.474;2023-01-01T01:51:55;23.35;;;2.92;;
60492;SDS011;46341;51.290;-2.474;2023-01-01T01:54:24;18.70;;;3.45;;
60492;SDS011;46341;51.290;-2.474;2023-01-01T01:56:54;20.25;;;2.75;;
60492;SDS011;46341;51.290;-2.474;2023-01-01T01:59:22;16.90;;;3.33;;
60492;SDS011;46341;51.290;-2.474;2023-01-01T02:01:50;16.80;;;2.67;;
60492;SDS011;46341;51.290;-2.474;2023-01-01T02:04:17;25.63;;;3.37;;
60492;SDS011;46341;51.290;-2.474;2023-01-01T02:06:43;21.88;;;3.42;;
60492;SDS011;46341;51.290;-2.474;2023-01-01T02:09:10;19.48;;;2.65;;
60492;SDS011;46341;51.290;-2.474;2023-01-01T02:11:36;15.65;;;2.83;;
60492;SDS011;46341;51.290;-2.474;2023-01-01T02:14:03;18.45;;;3.30;;
60492;SDS011;46341;51.290;-2.474;2023-01-01T02:19:01;26.77;;;3.72;;
60492;SDS011;46341;51.290;-2.474;2023-01-01T02:21:36;21.45;;;3.40;;
60492;SDS011;46341;51.290;-2.474;2023-01-01T02:26:43;18.20;;;3.45;;
60492;SDS011;46341;51.290;-2.474;2023-01-01T02:29:22;22.48;;;3.42;;
60492;SDS011;46341;51.290;-2.474;2023-01-01T02:31:56;24.17;;;3.10;;
60492;SDS011;46341;51.290;-2.474;2023-01-01T02:34:25;26.75;;;3.60;;
60492;SDS011;46341;51.290;-2.474;2023-01-01T02:36:53;21.08;;;3.47;;
60492;SDS011;46341;51.290;-2.474;2023-01-01T02:39:20;25.67;;;3.63;;
60492;SDS011;46341;51.290;-2.474;2023-01-01T02:41:49;18.00;;;2.92;;
60492;SDS011;46341;51.290;-2.474;2023-01-01T02:44:17;24.42;;;3.08;;
60492;SDS011;46341;51.290;-2.474;2023-01-01T02:46:44;22.05;;;3.25;;
60492;SDS011;46341;51.290;-2.474;2023-01-01T02:49:11;22.13;;;4.28;;
60492;SDS011;46341;51.290;-2.474;2023-01-01T02:54:32;24.48;;;3.75;;
60492;SDS011;46341;51.290;-2.474;2023-01-01T02:57:05;23.67;;;3.47;;
60492;SDS011;46341;51.290;-2.474;2023-01-01T03:07:47;28.20;;;3.58;;
60492;SDS011;46341;51.290;-2.474;2023-01-01T03:10:23;27.63;;;3.72;;
60492;SDS011;46341;51.290;-2.474;2023-01-01T03:12:55;24.02;;;3.55;;
60492;SDS011;46341;51.290;-2.474;2023-01-01T03:18:10;21.83;;;3.38;;
60492;SDS011;46341;51.290;-2.474;2023-01-01T03:20:39;15.82;;;2.60;;
60492;SDS011;46341;51.290;-2.474;2023-01-01T03:23:09;19.30;;;3.63;;
60492;SDS011;46341;51.290;-2.474;2023-01-01T03:25:44;22.13;;;3.17;;
60492;SDS011;46341;51.290;-2.474;2023-01-01T03:28:16;20.23;;;3.03;;
60492;SDS011;46341;51.290;-2.474;2023-01-01T03:30:44;20.65;;;3.10;;
60492;SDS011;46341;51.290;-2.474;2023-01-01T03:33:14;18.88;;;3.75;;
60492;SDS011;46341;51.290;-2.474;2023-01-01T03:41:14;21.90;;;3.20;;
60492;SDS011;46341;51.290;-2.474;2023-01-01T03:43:46;12.65;;;2.33;;
60492;SDS011;46341;51.290;-2.474;2023-01-01T03:46:14;10.38;;;2.10;;
60492;SDS011;46341;51.290;-2.474;2023-01-01T03:48:42;14.65;;;2.35;;
60492;SDS011;46341;51.290;-2.474;2023-01-01T03:53:55;3.53;;;0.77;;
60492;SDS011;46341;51.290;-2.474;2023-01-01T03:56:32;5.95;;;0.90;;
60492;SDS011;46341;51.290;-2.474;2023-01-01T03:59:02;2.13;;;0.40;;
60492;SDS011;46341;51.290;-2.474;2023-01-01T04:01:34;4.20;;;0.40;;
60492;SDS011;46341;51.290;-2.474;2023-01-01T04:04:02;4.10;;;0.70;;
60492;SDS011;46341;51.290;-2.474;2023-01-01T04:06:31;3.80;;;0.43;;
60492;SDS011;46341;51.290;-2.474;2023-01-01T04:08:58;4.30;;;0.88;;
60492;SDS011;46341;51.290;-2.474;2023-01-01T04:11:26;3.90;;;0.38;;
60492;SDS011;46341;51.290;-2.474;2023-01-01T04:14:11;4.07;;;0.52;;
60492;SDS011;46341;51.290;-2.474;2023-01-01T04:16:38;6.10;;;0.63;;
60492;SDS011;46341;51.290;-2.474;2023-01-01T04:19:05;3.30;;;0.30;;
60492;SDS011;46341;51.290;-2.474;2023-01-01T04:21:34;2.70;;;0.40;;
60492;SDS011;46341;51.290;-2.474;2023-01-01T04:24:00;1.13;;;0.20;;
60492;SDS011;46341;51.290;-2.474;2023-01-01T04:26:26;4.28;;;0.30;;
60492;SDS011;46341;51.290;-2.474;2023-01-01T04:28:53;3.63;;;0.30;;
60492;SDS011;46341;51.290;-2.474;2023-01-01T04:31:19;3.15;;;0.70;;
60492;SDS011;46341;51.290;-2.474;2023-01-01T04:33:45;4.30;;;0.75;;
60492;SDS011;46341;51.290;-2.474;2023-01-01T04:36:12;4.05;;;1.17;;
60492;SDS011;46341;51.290;-2.474;2023-01-01T04:38:38;5.07;;;1.10;;
60492;SDS011;46341;51.290;-2.474;2023-01-01T04:41:04;5.38;;;1.08;;
60492;SDS011;46341;51.290;-2.474;2023-01-01T04:43:31;4.95;;;1.00;;
60492;SDS011;46341;51.290;-2.474;2023-01-01T04:45:58;4.32;;;0.93;;
60492;SDS011;46341;51.290;-2.474;2023-01-01T04:50:52;4.53;;;0.75;;
60492;SDS011;46341;51.290;-2.474;2023-01-01T04:53:19;9.05;;;1.33;;
60492;SDS011;46341;51.290;-2.474;2023-01-01T04:55:45;8.82;;;0.93;;
60492;SDS011;46341;51.290;-2.474;2023-01-01T04:58:11;9.85;;;1.88;;
60492;SDS011;46341;51.290;-2.474;2023-01-01T05:00:38;13.77;;;1.58;;
60492;SDS011;46341;51.290;-2.474;2023-01-01T05:03:04;13.27;;;2.00;;
60492;SDS011;46341;51.290;-2.474;2023-01-01T05:05:31;16.27;;;2.55;;
60492;SDS011;46341;51.290;-2.474;2023-01-01T05:07:57;13.38;;;1.90;;
60492;SDS011;46341;51.290;-2.474;2023-01-01T05:10:23;13.02;;;1.90;;
60492;SDS011;46341;51.290;-2.474;2023-01-01T05:12:50;12.60;;;1.55;;
60492;SDS011;46341;51.290;-2.474;2023-01-01T05:15:16;15.82;;;1.73;;
60492;SDS011;46341;51.290;-2.474;2023-01-01T05:17:42;17.00;;;2.33;;
60492;SDS011;46341;51.290;-2.474;2023-01-01T05:20:09;19.92;;;2.67;;
60492;SDS011;46341;51.290;-2.474;2023-01-01T05:22:36;19.73;;;2.97;;
60492;SDS011;46341;51.290;-2.474;2023-01-01T05:25:02;15.23;;;2.55;;
60492;SDS011;46341;51.290;-2.474;2023-01-01T05:27:29;18.48;;;2.42;;
60492;SDS011;46341;51.290;-2.474;2023-01-01T05:29:55;22.30;;;3.17;;
60492;SDS011;46341;51.290;-2.474;2023-01-01T05:32:21;18.92;;;2.67;;
60492;SDS011;46341;51.290;-2.474;2023-01-01T05:34:48;20.40;;;2.85;;
60492;SDS011;46341;51.290;-2.474;2023-01-01T05:37:14;31.67;;;3.38;;
60492;SDS011;46341;51.290;-2.474;2023-01-01T05:39:41;22.55;;;3.47;;
60492;SDS011;46341;51.290;-2.474;2023-01-01T05:42:07;30.02;;;3.35;;
60492;SDS011;46341;51.290;-2.474;2023-01-01T05:44:34;27.55;;;4.07;;
60492;SDS011;46341;51.290;-2.474;2023-01-01T05:47:00;42.45;;;4.50;;
60492;SDS011;46341;51.290;-2.474;2023-01-01T05:49:26;28.42;;;4.05;;
60492;SDS011;46341;51.290;-2.474;2023-01-01T05:51:53;52.40;;;5.75;;
60492;SDS011;46341;51.290;-2.474;2023-01-01T05:54:19;41.10;;;5.07;;
60492;SDS011;46341;51.290;-2.474;2023-01-01T05:56:46;42.97;;;4.47;;
60492;SDS011;46341;51.290;-2.474;2023-01-01T05:59:12;37.00;;;5.03;;
60492;SDS011;46341;51.290;-2.474;2023-01-01T06:01:38;37.60;;;5.78;;
60492;SDS011;46341;51.290;-2.474;2023-01-01T06:04:11;40.38;;;4.65;;
60492;SDS011;46341;51.290;-2.474;2023-01-01T06:06:37;37.17;;;5.30;;
60492;SDS011;46341;51.290;-2.474;2023-01-01T06:09:04;33.55;;;4.53;;
60492;SDS011;46341;51.290;-2.474;2023-01-01T06:11:30;35.92;;;4.80;;
60492;SDS011;46341;51.290;-2.474;2023-01-01T06:13:57;30.05;;;3.97;;
60492;SDS011;46341;51.290;-2.474;2023-01-01T06:16:24;26.97;;;4.13;;
60492;SDS011;46341;51.290;-2.474;2023-01-01T06:18:51;37.72;;;4.90;;
60492;SDS011;46341;51.290;-2.474;2023-01-01T06:21:19;39.78;;;5.00;;
60492;SDS011;46341;51.290;-2.474;2023-01-01T06:23:46;36.40;;;4.70;;
60492;SDS011;46341;51.290;-2.474;2023-01-01T06:26:16;35.83;;;4.15;;
60492;SDS011;46341;51.290;-2.474;2023-01-01T06:28:43;34.45;;;4.78;;
60492;SDS011;46341;51.290;-2.474;2023-01-01T06:31:11;29.88;;;4.32;;
60492;SDS011;46341;51.290;-2.474;2023-01-01T06:36:05;31.73;;;5.43;;
60492;SDS011;46341;51.290;-2.474;2023-01-01T06:38:32;28.50;;;3.97;;
60492;SDS011;46341;51.290;-2.474;2023-01-01T06:41:00;24.75;;;3.38;;
60492;SDS011;46341;51.290;-2.474;2023-01-01T06:48:29;31.52;;;4.07;;
60492;SDS011;46341;51.290;-2.474;2023-01-01T06:50:56;26.67;;;4.45;;
60492;SDS011;46341;51.290;-2.474;2023-01-01T06:53:25;19.65;;;3.28;;
60492;SDS011;46341;51.290;-2.474;2023-01-01T06:55:52;24.48;;;3.88;;
60492;SDS011;46341;51.290;-2.474;2023-01-01T06:58:22;23.70;;;2.75;;
60492;SDS011;46341;51.290;-2.474;2023-01-01T07:00:49;19.58;;;3.00;;
60492;SDS011;46341;51.290;-2.474;2023-01-01T07:03:15;26.75;;;3.22;;
60492;SDS011;46341;51.290;-2.474;2023-01-01T07:05:42;15.63;;;3.08;;
60492;SDS011;46341;51.290;-2.474;2023-01-01T07:08:08;16.15;;;2.88;;
60492;SDS011;46341;51.290;-2.474;2023-01-01T07:10:35;23.80;;;3.38;;
60492;SDS011;46341;51.290;-2.474;2023-01-01T07:13:01;20.42;;;3.92;;
60492;SDS011;46341;51.290;-2.474;2023-01-01T07:15:28;26.55;;;4.13;;
60492;SDS011;46341;51.290;-2.474;2023-01-01T07:17:54;28.73;;;3.83;;
60492;SDS011;46341;51.290;-2.474;2023-01-01T07:20:20;20.20;;;2.83;;
60492;SDS011;46341;51.290;-2.474;2023-01-01T07:22:47;23.58;;;3.40;;
60492;SDS011;46341;51.290;-2.474;2023-01-01T07:25:14;21.48;;;3.72;;
60492;SDS011;46341;51.290;-2.474;2023-01-01T07:27:41;27.30;;;3.85;;
60492;SDS011;46341;51.290;-2.474;2023-01-01T07:30:08;24.00;;;3.83;;
60492;SDS011;46341;51.290;-2.474;2023-01-01T07:32:34;26.10;;;5.30;;
60492;SDS011;46341;51.290;-2.474;2023-01-01T07:35:00;28.33;;;4.40;;
60492;SDS011;46341;51.290;-2.474;2023-01-01T07:37:27;29.65;;;4.60;;
60492;SDS011;46341;51.290;-2.474;2023-01-01T07:39:53;24.45;;;3.90;;
60492;SDS011;46341;51.290;-2.474;2023-01-01T07:42:20;27.95;;;3.38;;
60492;SDS011;46341;51.290;-2.474;2023-01-01T07:44:46;25.63;;;4.03;;
60492;SDS011;46341;51.290;-2.474;2023-01-01T07:47:25;18.45;;;3.13;;
60492;SDS011;46341;51.290;-2.474;2023-01-01T07:49:52;22.05;;;3.17;;
60492;SDS011;46341;51.290;-2.474;2023-01-01T07:52:18;21.98;;;3.38;;
60492;SDS011;46341;51.290;-2.474;2023-01-01T07:54:45;24.70;;;3.67;;
60492;SDS011;46341;51.290;-2.474;2023-01-01T07:57:11;24.02;;;3.15;;
60492;SDS011;46341;51.290;-2.474;2023-01-01T07:59:37;26.63;;;3.95;;
60492;SDS011;46341;51.290;-2.474;2023-01-01T08:02:04;25.30;;;4.00;;
60492;SDS011;46341;51.290;-2.474;2023-01-01T08:04:30;35.90;;;4.03;;
60492;SDS011;46341;51.290;-2.474;2023-01-01T08:06:57;29.73;;;3.67;;
60492;SDS011;46341;51.290;-2.474;2023-01-01T08:09:23;30.60;;;3.70;;
60492;SDS011;46341;51.290;-2.474;2023-01-01T08:11:49;30.17;;;3.72;;
60492;SDS011;46341;51.290;-2.474;2023-01-01T08:14:18;26.27;;;4.07;;
60492;SDS011;46341;51.290;-2.474;2023-01-01T08:16:44;28.73;;;3.60;;
60492;SDS011;46341;51.290;-2.474;2023-01-01T08:19:11;35.53;;;4.43;;
60492;SDS011;46341;51.290;-2.474;2023-01-01T08:21:37;35.72;;;4.93;;
60492;SDS011;46341;51.290;-2.474;2023-01-01T08:24:04;22.33;;;3.30;;
60492;SDS011;46341;51.290;-2.474;2023-01-01T08:26:31;27.77;;;4.22;;
60492;SDS011;46341;51.290;-2.474;2023-01-01T08:28:58;27.52;;;4.60;;
60492;SDS011;46341;51.290;-2.474;2023-01-01T08:31:24;30.75;;;4.55;;
60492;SDS011;46341;51.290;-2.474;2023-01-01T08:33:50;30.38;;;4.70;;
60492;SDS011;46341;51.290;-2.474;2023-01-01T08:36:17;32.63;;;4.72;;
60492;SDS011;46341;51.290;-2.474;2023-01-01T08:38:45;28.58;;;4.80;;
60492;SDS011;46341;51.290;-2.474;2023-01-01T08:41:12;29.20;;;5.22;;
60492;SDS011;46341;51.290;-2.474;2023-01-01T08:43:38;26.45;;;4.80;;
60492;SDS011;46341;51.290;-2.474;2023-01-01T08:46:04;22.70;;;3.78;;
60492;SDS011;46341;51.290;-2.474;2023-01-01T08:48:31;28.58;;;3.72;;
60492;SDS011;46341;51.290;-2.474;2023-01-01T08:50:58;40.70;;;6.13;;
60492;SDS011;46341;51.290;-2.474;2023-01-01T08:56:01;34.55;;;4.72;;
60492;SDS011;46341;51.290;-2.474;2023-01-01T08:58:29;30.73;;;4.80;;
60492;SDS011;46341;51.290;-2.474;2023-01-01T09:00:55;30.40;;;4.28;;
60492;SDS011;46341;51.290;-2.474;2023-01-01T09:03:22;29.98;;;4.93;;
60492;SDS011;46341;51.290;-2.474;2023-01-01T09:05:48;35.97;;;4.93;;
60492;SDS011;46341;51.290;-2.474;2023-01-01T09:08:15;33.65;;;4.90;;
60492;SDS011;46341;51.290;-2.474;2023-01-01T09:10:41;35.20;;;5.18;;
60492;SDS011;46341;51.290;-2.474;2023-01-01T09:13:09;32.90;;;5.38;;
60492;SDS011;46341;51.290;-2.474;2023-01-01T09:15:35;28.25;;;4.70;;
60492;SDS011;46341;51.290;-2.474;2023-01-01T09:18:02;30.95;;;4.82;;
60492;SDS011;46341;51.290;-2.474;2023-01-01T09:20:28;32.15;;;5.57;;
60492;SDS011;46341;51.290;-2.474;2023-01-01T09:22:55;29.85;;;4.97;;
60492;SDS011;46341;51.290;-2.474;2023-01-01T09:25:29;30.73;;;4.70;;
60492;SDS011;46341;51.290;-2.474;2023-01-01T09:27:59;31.33;;;4.80;;
60492;SDS011;46341;51.290;-2.474;2023-01-01T09:30:26;37.00;;;5.30;;
60492;SDS011;46341;51.290;-2.474;2023-01-01T09:32:52;32.13;;;4.47;;
60492;SDS011;46341;51.290;-2.474;2023-01-01T09:35:19;38.28;;;5.57;;
60492;SDS011;46341;51.290;-2.474;2023-01-01T09:37:45;34.60;;;5.20;;
60492;SDS011;46341;51.290;-2.474;2023-01-01T09:43:03;29.02;;;5.20;;
60492;SDS011;46341;51.290;-2.474;2023-01-01T09:45:34;35.28;;;5.65;;
60492;SDS011;46341;51.290;-2.474;2023-01-01T09:48:06;32.08;;;5.20;;
60492;SDS011;46341;51.290;-2.474;2023-01-01T09:50:40;35.88;;;4.55;;
60492;SDS011;46341;51.290;-2.474;2023-01-01T09:53:14;32.08;;;5.25;;
60492;SDS011;46341;51.290;-2.474;2023-01-01T09:55:52;28.65;;;5.00;;
60492;SDS011;46341;51.290;-2.474;2023-01-01T09:58:20;24.95;;;4.93;;
60492;SDS011;46341;51.290;-2.474;2023-01-01T10:00:49;33.35;;;5.55;;
60492;SDS011;46341;51.290;-2.474;2023-01-01T10:03:19;28.00;;;5.15;;
60492;SDS011;46341;51.290;-2.474;2023-01-01T10:08:26;32.13;;;6.20;;
60492;SDS011;46341;51.290;-2.474;2023-01-01T10:13:36;34.47;;;5.90;;
60492;SDS011;46341;51.290;-2.474;2023-01-01T10:16:04;31.02;;;5.50;;
60492;SDS011;46341;51.290;-2.474;2023-01-01T10:18:34;29.15;;;4.95;;
60492;SDS011;46341;51.290;-2.474;2023-01-01T10:23:46;27.42;;;7.53;;
60492;SDS011;46341;51.290;-2.474;2023-01-01T10:26:15;37.83;;;6.97;;
60492;SDS011;46341;51.290;-2.474;2023-01-01T10:28:45;37.85;;;6.45;;
60492;SDS011;46341;51.290;-2.474;2023-01-01T10:31:14;34.83;;;5.63;;
60492;SDS011;46341;51.290;-2.474;2023-01-01T10:33:41;31.25;;;4.95;;
60492;SDS011;46341;51.290;-2.474;2023-01-01T10:36:09;27.73;;;4.85;;
60492;SDS011;46341;51.290;-2.474;2023-01-01T10:38:37;30.90;;;5.32;;
60492;SDS011;46341;51.290;-2.474;2023-01-01T10:41:13;33.72;;;6.03;;
60492;SDS011;46341;51.290;-2.474;2023-01-01T10:43:45;29.67;;;6.35;;
60492;SDS011;46341;51.290;-2.474;2023-01-01T10:46:12;41.33;;;7.35;;
60492;SDS011;46341;51.290;-2.474;2023-01-01T10:48:40;31.42;;;4.57;;
60492;SDS011;46341;51.290;-2.474;2023-01-01T10:51:21;33.00;;;5.60;;
60492;SDS011;46341;51.290;-2.474;2023-01-01T10:53:50;33.33;;;6.35;;
60492;SDS011;46341;51.290;-2.474;2023-01-01T10:56:18;25.02;;;5.22;;
60492;SDS011;46341;51.290;-2.474;2023-01-01T10:58:54;21.55;;;4.65;;
60492;SDS011;46341;51.290;-2.474;2023-01-01T11:04:00;26.42;;;4.90;;
60492;SDS011;46341;51.290;-2.474;2023-01-01T11:06:43;18.98;;;4.05;;
60492;SDS011;46341;51.290;-2.474;2023-01-01T11:09:21;22.40;;;4.07;;
60492;SDS011;46341;51.290;-2.474;2023-01-01T11:11:55;22.48;;;4.10;;
60492;SDS011;46341;51.290;-2.474;2023-01-01T11:14:36;19.08;;;3.45;;
60492;SDS011;46341;51.290;-2.474;2023-01-01T11:17:03;23.08;;;3.97;;
60492;SDS011;46341;51.290;-2.474;2023-01-01T11:19:33;19.95;;;4.30;;
60492;SDS011;46341;51.290;-2.474;2023-01-01T11:22:02;19.63;;;4.05;;
60492;SDS011;46341;51.290;-2.474;2023-01-01T11:24:29;26.13;;;4.43;;
60492;SDS011;46341;51.290;-2.474;2023-01-01T11:29:41;18.90;;;4.65;;
60492;SDS011;46341;51.290;-2.474;2023-01-01T11:32:07;25.88;;;5.57;;
60492;SDS011;46341;51.290;-2.474;2023-01-01T11:34:35;24.38;;;7.20;;
60492;SDS011;46341;51.290;-2.474;2023-01-01T11:39:28;21.40;;;7.88;;
60492;SDS011;46341;51.290;-2.474;2023-01-01T11:41:57;19.90;;;5.88;;
60492;SDS011;46341;51.290;-2.474;2023-01-01T11:44:29;16.48;;;3.58;;
60492;SDS011;46341;51.290;-2.474;2023-01-01T11:46:58;20.20;;;3.47;;
60492;SDS011;46341;51.290;-2.474;2023-01-01T11:49:25;17.70;;;3.28;;
60492;SDS011;46341;51.290;-2.474;2023-01-01T11:51:51;24.05;;;3.95;;
60492;SDS011;46341;51.290;-2.474;2023-01-01T11:54:28;22.90;;;4.18;;
60492;SDS011;46341;51.290;-2.474;2023-01-01T11:56:58;22.13;;;4.55;;
60492;SDS011;46341;51.290;-2.474;2023-01-01T11:59:26;19.92;;;3.88;;
60492;SDS011;46341;51.290;-2.474;2023-01-01T12:01:56;26.50;;;4.47;;
60492;SDS011;46341;51.290;-2.474;2023-01-01T12:04:30;25.75;;;4.63;;
60492;SDS011;46341;51.290;-2.474;2023-01-01T12:07:08;25.63;;;4.25;;
60492;SDS011;46341;51.290;-2.474;2023-01-01T12:12:04;20.95;;;4.97;;
60492;SDS011;46341;51.290;-2.474;2023-01-01T12:14:54;30.13;;;5.13;;
60492;SDS011;46341;51.290;-2.474;2023-01-01T12:17:45;22.48;;;4.43;;
60492;SDS011;46341;51.290;-2.474;2023-01-01T12:20:22;26.90;;;5.80;;
60492;SDS011;46341;51.290;-2.474;2023-01-01T12:22:51;20.27;;;4.07;;
60492;SDS011;46341;51.290;-2.474;2023-01-01T12:25:20;28.63;;;4.70;;
60492;SDS011;46341;51.290;-2.474;2023-01-01T12:27:59;25.60;;;4.35;;
60492;SDS011;46341;51.290;-2.474;2023-01-01T12:30:37;23.83;;;4.65;;
60492;SDS011;46341;51.290;-2.474;2023-01-01T12:40:41;30.02;;;4.53;;
60492;SDS011;46341;51.290;-2.474;2023-01-01T12:43:18;21.67;;;5.07;;
60492;SDS011;46341;51.290;-2.474;2023-01-01T12:51:13;30.00;;;5.35;;
60492;SDS011;46341;51.290;-2.474;2023-01-01T12:56:36;25.33;;;5.20;;
60492;SDS011;46341;51.290;-2.474;2023-01-01T12:59:04;39.50;;;6.40;;
60492;SDS011;46341;51.290;-2.474;2023-01-01T13:01:32;31.48;;;5.93;;
60492;SDS011;46341;51.290;-2.474;2023-01-01T13:04:04;32.30;;;4.88;;
60492;SDS011;46341;51.290;-2.474;2023-01-01T13:09:18;33.03;;;5.47;;
60492;SDS011;46341;51.290;-2.474;2023-01-01T13:11:45;28.90;;;4.73;;
60492;SDS011;46341;51.290;-2.474;2023-01-01T13:14:14;27.42;;;5.45;;
60492;SDS011;46341;51.290;-2.474;2023-01-01T13:16:41;34.03;;;5.28;;
60492;SDS011;46341;51.290;-2.474;2023-01-01T13:19:29;33.97;;;5.32;;
60492;SDS011;46341;51.290;-2.474;2023-01-01T13:22:26;45.33;;;7.00;;
60492;SDS011;46341;51.290;-2.474;2023-01-01T13:24:42;28.80;;;5.13;;
60492;SDS011;46341;51.290;-2.474;2023-01-01T13:43:50;31.15;;;4.85;;
60492;SDS011;46341;51.290;-2.474;2023-01-01T13:46:18;30.30;;;5.18;;
60492;SDS011;46341;51.290;-2.474;2023-01-01T13:57:09;35.65;;;5.32;;
60492;SDS011;46341;51.290;-2.474;2023-01-01T13:59:59;37.80;;;5.47;;
60492;SDS011;46341;51.290;-2.474;2023-01-01T14:02:28;35.95;;;5.88;;
60492;SDS011;46341;51.290;-2.474;2023-01-01T14:10:23;34.78;;;5.72;;
60492;SDS011;46341;51.290;-2.474;2023-01-01T14:12:50;34.42;;;5.97;;
60492;SDS011;46341;51.290;-2.474;2023-01-01T14:15:25;38.08;;;6.65;;
60492;SDS011;46341;51.290;-2.474;2023-01-01T14:17:52;30.05;;;4.45;;
60492;SDS011;46341;51.290;-2.474;2023-01-01T14:20:20;37.17;;;6.78;;
60492;SDS011;46341;51.290;-2.474;2023-01-01T14:22:47;36.28;;;5.32;;
60492;SDS011;46341;51.290;-2.474;2023-01-01T14:25:15;34.47;;;5.60;;
60492;SDS011;46341;51.290;-2.474;2023-01-01T14:27:44;34.65;;;5.60;;
60492;SDS011;46341;51.290;-2.474;2023-01-01T14:30:17;36.95;;;11.07;;
60492;SDS011;46341;51.290;-2.474;2023-01-01T14:32:43;66.97;;;46.70;;
60492;SDS011;46341;51.290;-2.474;2023-01-01T14:35:12;42.40;;;19.05;;
60492;SDS011;46341;51.290;-2.474;2023-01-01T14:37:39;42.40;;;18.42;;
60492;SDS011;46341;51.290;-2.474;2023-01-01T14:40:07;44.25;;;18.30;;
60492;SDS011;46341;51.290;-2.474;2023-01-01T14:42:34;34.30;;;13.90;;
60492;SDS011;46341;51.290;-2.474;2023-01-01T14:45:01;54.60;;;20.58;;
60492;SDS011;46341;51.290;-2.474;2023-01-01T14:47:29;42.05;;;17.90;;
60492;SDS011;46341;51.290;-2.474;2023-01-01T14:49:58;57.03;;;31.65;;
60492;SDS011;46341;51.290;-2.474;2023-01-01T14:52:27;52.72;;;39.92;;
60492;SDS011;46341;51.290;-2.474;2023-01-01T14:54:57;77.20;;;65.35;;
60492;SDS011;46341;51.290;-2.474;2023-01-01T14:57:25;51.38;;;24.85;;
60492;SDS011;46341;51.290;-2.474;2023-01-01T14:59:52;39.47;;;17.85;;
60492;SDS011;46341;51.290;-2.474;2023-01-01T15:02:20;31.90;;;10.40;;
60492;SDS011;46341;51.290;-2.474;2023-01-01T15:04:47;36.92;;;6.75;;
60492;SDS011;46341;51.290;-2.474;2023-01-01T15:07:20;46.90;;;21.27;;
60492;SDS011;46341;51.290;-2.474;2023-01-01T15:09:48;47.92;;;30.13;;
60492;SDS011;46341;51.290;-2.474;2023-01-01T15:12:14;41.13;;;12.43;;
60492;SDS011;46341;51.290;-2.474;2023-01-01T15:14:43;70.18;;;48.80;;
60492;SDS011;46341;51.290;-2.474;2023-01-01T15:17:11;37.42;;;12.00;;
60492;SDS011;46341;51.290;-2.474;2023-01-01T15:19:39;46.20;;;24.17;;
60492;SDS011;46341;51.290;-2.474;2023-01-01T15:24:54;34.53;;;5.93;;
60492;SDS011;46341;51.290;-2.474;2023-01-01T15:27:23;39.38;;;19.13;;
60492;SDS011;46341;51.290;-2.474;2023-01-01T15:29:49;37.33;;;6.63;;
60492;SDS011;46341;51.290;-2.474;2023-01-01T15:32:22;58.92;;;30.85;;
60492;SDS011;46341;51.290;-2.474;2023-01-01T15:34:49;47.78;;;17.40;;
60492;SDS011;46341;51.290;-2.474;2023-01-01T15:37:18;37.97;;;6.25;;
60492;SDS011;46341;51.290;-2.474;2023-01-01T15:39:47;35.22;;;8.00;;
60492;SDS011;46341;51.290;-2.474;2023-01-01T15:42:22;38.58;;;8.52;;
60492;SDS011;46341;51.290;-2.474;2023-01-01T15:44:49;33.85;;;6.22;;
60492;SDS011;46341;51.290;-2.474;2023-01-01T15:47:15;66.28;;;25.27;;
60492;SDS011;46341;51.290;-2.474;2023-01-01T15:49:42;37.33;;;6.57;;
60492;SDS011;46341;51.290;-2.474;2023-01-01T15:52:16;40.60;;;8.85;;
60492;SDS011;46341;51.290;-2.474;2023-01-01T15:57:18;33.87;;;12.37;;
60492;SDS011;46341;51.290;-2.474;2023-01-01T15:59:45;32.63;;;9.90;;
60492;SDS011;46341;51.290;-2.474;2023-01-01T16:02:14;19.80;;;5.82;;
60492;SDS011;46341;51.290;-2.474;2023-01-01T16:04:45;40.38;;;19.23;;
60492;SDS011;46341;51.290;-2.474;2023-01-01T16:07:16;29.75;;;13.85;;
60492;SDS011;46341;51.290;-2.474;2023-01-01T16:09:46;23.45;;;9.65;;
60492;SDS011;46341;51.290;-2.474;2023-01-01T16:12:20;34.13;;;13.73;;
60492;SDS011;46341;51.290;-2.474;2023-01-01T16:14:46;49.10;;;18.65;;
60492;SDS011;46341;51.290;-2.474;2023-01-01T16:17:17;54.15;;;16.60;;
60492;SDS011;46341;51.290;-2.474;2023-01-01T16:19:44;50.50;;;17.13;;
60492;SDS011;46341;51.290;-2.474;2023-01-01T16:22:15;56.35;;;18.25;;
60492;SDS011;46341;51.290;-2.474;2023-01-01T16:24:42;98.32;;;37.50;;
60492;SDS011;46341;51.290;-2.474;2023-01-01T16:27:09;62.42;;;23.17;;